createdAt,value
2022-09-28T00:00:17.922Z,75.20
2022-09-28T00:02:44.573Z,74.40
2022-09-28T00:05:12.701Z,74.32
2022-09-28T00:07:39.543Z,74.76
2022-09-28T00:10:11.921Z,74.31
2022-09-28T00:12:39.228Z,74.69
2022-09-28T00:15:06.070Z,74.23
2022-09-28T00:17:33.612Z,74.61
2022-09-28T00:20:00.300Z,73.64
2022-09-28T00:22:28.395Z,74.66
2022-09-28T00:24:54.813Z,76.25
2022-09-28T00:27:21.424Z,75.07
2022-09-28T00:29:48.520Z,75.62
2022-09-28T00:32:16.636Z,77.21
2022-09-28T00:34:45.897Z,76.99
2022-09-28T00:37:14.205Z,76.48
2022-09-28T00:39:44.364Z,76.69
2022-09-28T00:42:15.367Z,76.52
2022-09-28T00:44:49.997Z,75.98
2022-09-28T00:47:49.471Z,76.45
2022-09-28T00:50:18.324Z,75.42
2022-09-28T00:52:49.243Z,75.79
2022-09-28T00:55:19.284Z,75.17
2022-09-28T00:57:49.808Z,75.28
2022-09-28T01:00:16.724Z,75.57
2022-09-28T01:02:44.364Z,76.25
2022-09-28T01:05:11.537Z,75.07
2022-09-28T01:07:39.055Z,74.47
2022-09-28T01:10:06.028Z,74.96
2022-09-28T01:12:32.548Z,74.81
2022-09-28T01:15:00.534Z,75.74
2022-09-28T01:17:48.850Z,75.30
2022-09-28T01:20:29.162Z,75.10
2022-09-28T01:23:13.060Z,75.16
2022-09-28T01:25:55.863Z,74.85
2022-09-28T01:28:29.940Z,75.22
2022-09-28T01:31:07.690Z,75.89
2022-09-28T01:33:41.481Z,74.43
2022-09-28T01:36:15.688Z,74.72
2022-09-28T01:38:43.552Z,74.77
2022-09-28T01:41:10.447Z,75.13
2022-09-28T01:43:40.852Z,75.44
2022-09-28T01:46:18.274Z,75.00
2022-09-28T01:49:31.246Z,75.67
2022-09-28T01:52:01.512Z,75.10
2022-09-28T01:54:40.308Z,75.30
2022-09-28T01:57:22.971Z,76.15
2022-09-28T01:59:57.749Z,75.81
2022-09-28T02:02:27.659Z,76.21
2022-09-28T02:04:58.646Z,76.53
2022-09-28T02:07:34.673Z,76.17
2022-09-28T02:10:07.363Z,75.69
2022-09-28T02:12:58.404Z,75.75
2022-09-28T02:15:37.150Z,75.86
2022-09-28T02:18:03.897Z,75.94
2022-09-28T02:20:32.085Z,75.19
2022-09-28T02:22:59.657Z,75.45
2022-09-28T02:25:49.806Z,74.89
2022-09-28T02:28:18.027Z,75.81
2022-09-28T02:30:45.088Z,76.06
2022-09-28T02:33:20.403Z,75.63
2022-09-28T02:35:47.255Z,76.34
2022-09-28T02:38:14.985Z,75.92
2022-09-28T02:40:44.313Z,75.63
2022-09-28T02:43:20.052Z,75.47
2022-09-28T02:46:28.469Z,75.74
2022-09-28T02:49:34.970Z,74.23
2022-09-28T02:52:12.304Z,75.79
2022-09-28T02:54:44.912Z,74.94
2022-09-28T02:57:30.451Z,75.06
2022-09-28T02:59:59.799Z,75.50
2022-09-28T03:02:29.575Z,76.20
2022-09-28T03:04:59.093Z,76.24
2022-09-28T03:07:46.949Z,75.56
2022-09-28T03:10:18.105Z,75.26
2022-09-28T03:12:46.354Z,74.91
2022-09-28T03:15:28.819Z,75.56
2022-09-28T03:17:57.557Z,74.85
2022-09-28T03:20:25.411Z,75.49
2022-09-28T03:23:12.377Z,75.02
2022-09-28T03:25:39.691Z,75.54
2022-09-28T03:28:06.324Z,75.38
2022-09-28T03:30:35.820Z,74.66
2022-09-28T03:33:03.130Z,75.70
2022-09-28T03:35:31.763Z,75.13
2022-09-28T03:37:58.372Z,75.31
2022-09-28T03:40:27.324Z,75.83
2022-09-28T03:42:54.084Z,75.49
2022-09-28T03:45:20.624Z,76.06
2022-09-28T03:47:49.085Z,74.53
2022-09-28T03:50:15.971Z,73.55
2022-09-28T03:52:42.873Z,74.48
2022-09-28T03:55:10.804Z,75.02
2022-09-28T03:57:37.485Z,74.50
2022-09-28T04:00:05.092Z,75.82
2022-09-28T04:02:40.429Z,74.84
2022-09-28T04:05:07.634Z,74.33
2022-09-28T04:07:34.223Z,73.43
2022-09-28T04:10:01.078Z,73.64
2022-09-28T04:12:27.678Z,72.89
2022-09-28T04:14:54.274Z,72.82
2022-09-28T04:17:20.866Z,74.84
2022-09-28T04:19:47.997Z,73.79
2022-09-28T04:22:33.548Z,72.88
2022-09-28T04:25:00.552Z,73.75
2022-09-28T04:27:45.905Z,73.26
2022-09-28T04:30:12.734Z,73.08
2022-09-28T04:32:40.928Z,72.81
2022-09-28T04:35:08.652Z,73.27
2022-09-28T04:37:35.327Z,73.40
2022-09-28T04:40:02.139Z,72.58
2022-09-28T04:42:30.629Z,72.96
2022-09-28T04:44:58.809Z,73.00
2022-09-28T04:47:25.357Z,72.68
2022-09-28T04:50:15.681Z,72.22
2022-09-28T04:53:05.253Z,72.85
2022-09-28T04:55:32.648Z,72.96
2022-09-28T04:58:02.662Z,71.73
2022-09-28T05:00:35.232Z,72.29
2022-09-28T05:03:10.748Z,72.63
2022-09-28T05:05:56.075Z,72.42
2022-09-28T05:08:43.414Z,72.47
2022-09-28T05:11:11.801Z,72.26
2022-09-28T05:13:43.392Z,71.78
2022-09-28T05:16:11.141Z,71.51
2022-09-28T05:18:57.648Z,72.04
2022-09-28T05:21:26.293Z,72.17
2022-09-28T05:23:56.035Z,71.91
2022-09-28T05:26:23.267Z,71.31
2022-09-28T05:28:49.959Z,71.56
2022-09-28T05:31:35.275Z,72.23
2022-09-28T05:34:30.931Z,72.77
2022-09-28T05:36:57.624Z,72.97
2022-09-28T05:39:24.221Z,72.29
2022-09-28T05:41:50.739Z,72.80
2022-09-28T05:44:17.463Z,72.60
2022-09-28T05:46:44.245Z,72.73
2022-09-28T05:49:12.919Z,72.70
2022-09-28T05:51:39.556Z,72.89
2022-09-28T05:54:06.459Z,74.16
2022-09-28T05:56:35.737Z,72.97
2022-09-28T05:59:06.219Z,73.65
2022-09-28T06:01:32.923Z,73.49
2022-09-28T06:04:01.459Z,73.18
2022-09-28T06:06:28.058Z,73.00
2022-09-28T06:08:56.296Z,73.36
2022-09-28T06:11:43.101Z,73.48
2022-09-28T06:14:21.582Z,73.47
2022-09-28T06:16:48.181Z,73.18
2022-09-28T06:19:14.956Z,73.30
2022-09-28T06:21:58.401Z,73.34
2022-09-28T06:24:26.001Z,73.73
2022-09-28T06:26:52.792Z,73.06
2022-09-28T06:29:20.388Z,73.28
2022-09-28T06:31:47.557Z,73.28
2022-09-28T06:34:14.292Z,73.20
2022-09-28T06:36:41.086Z,73.02
2022-09-28T06:39:08.725Z,72.62
2022-09-28T06:41:36.517Z,73.29
2022-09-28T06:44:12.943Z,72.85
2022-09-28T06:47:01.225Z,72.98
2022-09-28T06:49:47.724Z,72.23
2022-09-28T06:52:37.028Z,72.86
2022-09-28T06:55:09.264Z,72.74
2022-09-28T06:57:43.708Z,72.71
2022-09-28T07:00:11.351Z,72.33
2022-09-28T07:02:38.013Z,72.63
2022-09-28T07:05:29.607Z,72.52
2022-09-28T07:08:19.856Z,73.52
2022-09-28T07:11:07.630Z,72.41
2022-09-28T07:13:50.362Z,72.18
2022-09-28T07:16:24.160Z,72.09
2022-09-28T07:18:53.280Z,72.00
2022-09-28T07:21:28.717Z,72.10
2022-09-28T07:23:56.911Z,71.86
2022-09-28T07:26:24.756Z,71.76
2022-09-28T07:29:13.138Z,71.63
2022-09-28T07:31:59.077Z,72.22
2022-09-28T07:34:44.597Z,71.85
2022-09-28T07:37:27.768Z,72.97
2022-09-28T07:40:13.101Z,72.38
2022-09-28T07:42:39.770Z,72.35
2022-09-28T07:45:07.318Z,72.39
2022-09-28T07:47:35.295Z,71.14
2022-09-28T07:50:18.079Z,71.44
2022-09-28T07:53:05.947Z,70.73
2022-09-28T07:55:52.540Z,71.18
2022-09-28T07:58:37.821Z,71.61
2022-09-28T08:01:27.846Z,70.99
2022-09-28T08:03:56.334Z,70.69
2022-09-28T08:06:23.772Z,71.13
2022-09-28T08:08:51.482Z,70.93
2022-09-28T08:11:19.776Z,70.81
2022-09-28T08:14:12.240Z,70.86
2022-09-28T08:16:53.358Z,70.52
2022-09-28T08:20:04.683Z,70.16
2022-09-28T08:22:32.419Z,71.54
2022-09-28T08:25:00.289Z,71.25
2022-09-28T08:27:26.904Z,70.60
2022-09-28T08:29:53.835Z,70.65
2022-09-28T08:32:46.721Z,70.21
2022-09-28T08:35:58.514Z,70.81
2022-09-28T08:38:47.975Z,69.38
2022-09-28T08:42:09.103Z,68.77
2022-09-28T08:44:59.248Z,68.33
2022-09-28T08:48:14.250Z,68.25
2022-09-28T08:51:17.243Z,67.61
2022-09-28T08:54:39.919Z,68.56
2022-09-28T08:57:19.480Z,66.73
2022-09-28T08:59:55.740Z,68.90
2022-09-28T09:02:33.508Z,67.41
2022-09-28T09:05:19.056Z,67.66
2022-09-28T09:08:08.069Z,67.66
2022-09-28T09:11:02.885Z,67.45
2022-09-28T09:14:00.083Z,66.78
2022-09-28T09:16:49.283Z,66.16
2022-09-28T09:19:54.571Z,65.35
2022-09-28T09:22:39.256Z,64.98
2022-09-28T09:25:18.087Z,65.80
2022-09-28T09:27:55.712Z,64.63
2022-09-28T09:30:25.677Z,64.69
2022-09-28T09:33:24.119Z,63.75
2022-09-28T09:36:47.451Z,63.85
2022-09-28T09:40:25.613Z,63.20
2022-09-28T09:43:19.867Z,59.94
2022-09-28T09:46:12.220Z,63.36
2022-09-28T09:49:04.581Z,64.53
2022-09-28T09:51:41.941Z,65.88
2022-09-28T09:54:25.610Z,63.10
2022-09-28T09:57:03.715Z,61.86
2022-09-28T09:59:59.120Z,64.19
2022-09-28T10:02:42.277Z,64.34
2022-09-28T10:05:29.879Z,62.11
2022-09-28T10:08:03.737Z,62.83
2022-09-28T10:10:36.027Z,63.59
2022-09-28T10:13:08.745Z,62.93
2022-09-28T10:15:36.488Z,63.80
2022-09-28T10:18:32.419Z,63.21
2022-09-28T10:21:26.609Z,61.41
2022-09-28T10:24:02.534Z,63.55
2022-09-28T10:26:41.772Z,62.37
2022-09-28T10:29:17.869Z,61.81
2022-09-28T10:31:52.839Z,62.75
2022-09-28T10:34:28.764Z,62.71
2022-09-28T10:37:01.162Z,62.58
2022-09-28T10:39:36.963Z,64.63
2022-09-28T10:42:08.124Z,62.58
2022-09-28T10:44:48.560Z,60.44
2022-09-28T10:47:32.732Z,63.14
2022-09-28T10:49:59.643Z,61.81
2022-09-28T10:52:39.835Z,65.00
2022-09-28T10:55:26.218Z,60.99
2022-09-28T10:57:53.193Z,59.21
2022-09-28T11:00:30.206Z,60.54
2022-09-28T11:03:41.852Z,59.04
2022-09-28T11:06:08.802Z,60.48
2022-09-28T11:08:38.881Z,60.88
2022-09-28T11:11:09.866Z,59.50
2022-09-28T11:13:56.625Z,60.85
2022-09-28T11:16:32.689Z,59.61
2022-09-28T11:19:06.809Z,59.64
2022-09-28T11:21:42.946Z,56.53
2022-09-28T11:24:18.933Z,56.91
2022-09-28T11:26:46.871Z,55.06
2022-09-28T11:29:43.657Z,57.37
2022-09-28T11:32:41.140Z,57.33
2022-09-28T11:35:54.094Z,56.86
2022-09-28T11:38:40.596Z,58.00
2022-09-28T11:41:47.430Z,56.43
2022-09-28T11:44:23.131Z,57.82
2022-09-28T11:47:10.677Z,53.77
2022-09-28T11:50:24.121Z,56.36
2022-09-28T11:52:55.976Z,56.20
2022-09-28T11:55:40.893Z,54.79
2022-09-28T11:59:13.488Z,54.75
2022-09-28T12:01:52.539Z,56.15
2022-09-28T12:05:17.197Z,55.52
2022-09-28T12:07:50.379Z,57.65
2022-09-28T12:10:48.158Z,55.90
2022-09-28T12:13:20.576Z,55.79
2022-09-28T12:17:04.156Z,55.17
2022-09-28T12:19:38.646Z,58.46
2022-09-28T12:22:13.799Z,55.77
2022-09-28T12:24:46.270Z,57.33
2022-09-28T12:27:14.726Z,55.85
2022-09-28T12:29:44.512Z,53.72
2022-09-28T12:32:24.149Z,53.66
2022-09-28T12:34:50.906Z,52.27
2022-09-28T12:37:20.213Z,55.11
2022-09-28T12:40:03.375Z,55.14
2022-09-28T12:42:56.537Z,53.86
2022-09-28T12:45:42.894Z,58.02
2022-09-28T12:48:20.895Z,52.12
2022-09-28T12:51:04.357Z,50.69
2022-09-28T12:53:38.786Z,53.77
2022-09-28T12:56:11.733Z,53.50
2022-09-28T12:59:01.114Z,49.01
2022-09-28T13:01:37.389Z,52.43
2022-09-28T13:04:35.452Z,53.62
2022-09-28T13:07:06.606Z,52.87
2022-09-28T13:09:53.441Z,52.18
2022-09-28T13:13:14.016Z,53.04
2022-09-28T13:16:07.633Z,49.21
2022-09-28T13:18:37.288Z,50.92
2022-09-28T13:21:21.503Z,53.16
2022-09-28T13:23:50.448Z,53.07
2022-09-28T13:26:26.179Z,51.36
2022-09-28T13:28:56.030Z,51.76
2022-09-28T13:31:30.871Z,51.22
2022-09-28T13:34:03.152Z,50.94
2022-09-28T13:36:30.431Z,52.17
2022-09-28T13:38:59.573Z,53.34
2022-09-28T13:41:29.803Z,50.87
2022-09-28T13:44:23.792Z,52.06
2022-09-28T13:47:00.258Z,51.93
2022-09-28T13:49:31.082Z,52.55
2022-09-28T13:52:02.744Z,53.73
2022-09-28T13:54:43.454Z,52.90
2022-09-28T13:57:36.124Z,54.04
2022-09-28T14:00:25.387Z,53.23
2022-09-28T14:03:01.488Z,52.74
2022-09-28T14:05:58.931Z,51.31
2022-09-28T14:08:38.875Z,48.20
2022-09-28T14:11:34.232Z,50.88
2022-09-28T14:14:13.920Z,48.10
2022-09-28T14:16:41.758Z,50.71
2022-09-28T14:19:10.346Z,52.09
2022-09-28T14:21:48.883Z,51.16
2022-09-28T14:24:43.843Z,52.22
2022-09-28T14:27:17.312Z,51.23
2022-09-28T14:29:44.186Z,53.86
2022-09-28T14:32:11.073Z,54.22
2022-09-28T14:34:43.043Z,53.24
2022-09-28T14:37:46.179Z,55.54
2022-09-28T14:40:50.710Z,52.08
2022-09-28T14:43:26.303Z,54.11
2022-09-28T14:46:10.019Z,50.88
2022-09-28T14:48:47.952Z,51.73
2022-09-28T14:51:26.562Z,49.60
2022-09-28T14:53:54.799Z,50.58
2022-09-28T14:56:21.821Z,51.16
2022-09-28T14:58:54.020Z,53.69
2022-09-28T15:01:22.853Z,52.36
2022-09-28T15:03:52.291Z,48.09
2022-09-28T15:06:22.863Z,50.85
2022-09-28T15:08:52.679Z,51.66
2022-09-28T15:11:24.364Z,54.20
2022-09-28T15:13:55.705Z,52.26
2022-09-28T15:16:23.903Z,51.13
2022-09-28T15:18:58.108Z,48.96
2022-09-28T15:21:32.876Z,51.43
2022-09-28T15:23:59.551Z,51.34
2022-09-28T15:26:31.261Z,53.59
2022-09-28T15:28:58.886Z,51.69
2022-09-28T15:31:27.147Z,50.82
2022-09-28T15:34:12.501Z,53.79
2022-09-28T15:36:43.363Z,53.62
2022-09-28T15:39:16.221Z,51.12
2022-09-28T15:41:44.157Z,52.22
2022-09-28T15:44:10.613Z,53.00
2022-09-28T15:46:42.856Z,54.33
2022-09-28T15:49:25.598Z,49.98
2022-09-28T15:52:02.981Z,51.50
2022-09-28T15:54:36.615Z,51.55
2022-09-28T15:57:03.363Z,52.29
2022-09-28T15:59:38.194Z,49.57
2022-09-28T16:02:20.661Z,51.20
2022-09-28T16:04:51.700Z,52.67
2022-09-28T16:07:18.399Z,53.37
2022-09-28T16:09:56.067Z,53.60
2022-09-28T16:12:23.991Z,52.48
2022-09-28T16:14:53.575Z,53.14
2022-09-28T16:17:38.391Z,52.44
2022-09-28T16:20:20.386Z,54.29
2022-09-28T16:22:46.910Z,54.19
2022-09-28T16:25:23.851Z,54.43
2022-09-28T16:27:51.787Z,55.10
2022-09-28T16:30:24.271Z,54.01
2022-09-28T16:32:53.800Z,54.39
2022-09-28T16:35:22.804Z,55.56
2022-09-28T16:37:57.753Z,56.35
2022-09-28T16:40:24.412Z,57.30
2022-09-28T16:42:51.574Z,57.36
2022-09-28T16:45:23.784Z,58.10
2022-09-28T16:47:54.513Z,57.84
2022-09-28T16:50:21.772Z,58.92
2022-09-28T16:53:17.388Z,59.43
2022-09-28T16:55:44.672Z,59.74
2022-09-28T16:58:11.419Z,60.07
2022-09-28T17:00:38.096Z,59.95
2022-09-28T17:03:16.220Z,56.02
2022-09-28T17:05:43.055Z,60.16
2022-09-28T17:08:13.624Z,60.15
2022-09-28T17:11:13.943Z,59.94
2022-09-28T17:13:41.351Z,59.42
2022-09-28T17:16:36.706Z,59.28
2022-09-28T17:19:20.705Z,58.29
2022-09-28T17:21:47.686Z,58.96
2022-09-28T17:24:14.369Z,59.21
2022-09-28T17:26:43.744Z,58.92
2022-09-28T17:29:14.345Z,59.55
2022-09-28T17:31:42.827Z,60.10
2022-09-28T17:34:11.085Z,59.83
2022-09-28T17:36:37.940Z,60.31
2022-09-28T17:39:05.018Z,61.16
2022-09-28T17:41:32.176Z,60.05
2022-09-28T17:44:00.145Z,60.15
2022-09-28T17:46:27.219Z,60.19
2022-09-28T17:48:54.625Z,60.23
2022-09-28T17:51:22.486Z,60.20
2022-09-28T17:53:49.226Z,60.14
2022-09-28T17:56:16.196Z,61.26
2022-09-28T17:58:42.830Z,60.47
2022-09-28T18:01:09.855Z,59.88
2022-09-28T18:03:36.713Z,59.95
2022-09-28T18:06:03.624Z,60.52
2022-09-28T18:08:30.759Z,60.20
2022-09-28T18:10:57.317Z,60.52
2022-09-28T18:13:24.875Z,60.11
2022-09-28T18:15:52.372Z,60.50
2022-09-28T18:18:19.174Z,60.15
2022-09-28T18:20:45.821Z,60.71
2022-09-28T18:23:12.424Z,60.29
2022-09-28T18:25:40.670Z,60.10
2022-09-28T18:28:07.492Z,60.23
2022-09-28T18:30:38.248Z,60.15
2022-09-28T18:33:05.085Z,60.24
2022-09-28T18:35:31.646Z,61.14
2022-09-28T18:37:58.480Z,60.75
2022-09-28T18:40:25.414Z,60.93
2022-09-28T18:42:52.607Z,61.57
2022-09-28T18:45:19.326Z,61.91
2022-09-28T18:47:45.866Z,61.85
2022-09-28T18:50:12.997Z,61.55
2022-09-28T18:52:39.729Z,62.30
2022-09-28T18:55:07.669Z,61.62
2022-09-28T18:57:34.823Z,62.32
2022-09-28T19:00:07.660Z,62.44
2022-09-28T19:02:34.607Z,62.44
2022-09-28T19:05:01.218Z,63.46
2022-09-28T19:07:27.753Z,63.51
2022-09-28T19:09:54.343Z,63.70
2022-09-28T19:12:20.975Z,63.60
2022-09-28T19:14:47.569Z,64.33
2022-09-28T19:17:14.179Z,64.85
2022-09-28T19:19:42.667Z,64.67
2022-09-28T19:22:09.391Z,65.75
2022-09-28T19:24:36.017Z,65.61
2022-09-28T19:27:02.608Z,65.39
2022-09-28T19:29:29.298Z,65.89
2022-09-28T19:31:56.987Z,65.56
2022-09-28T19:34:26.851Z,65.48
2022-09-28T19:36:53.547Z,65.77
2022-09-28T19:39:20.117Z,65.73
2022-09-28T19:41:51.187Z,65.71
2022-09-28T19:44:27.646Z,66.24
2022-09-28T19:46:59.235Z,66.09
2022-09-28T19:49:27.390Z,66.52
2022-09-28T19:52:14.199Z,66.60
2022-09-28T19:54:56.795Z,66.83
2022-09-28T19:57:25.040Z,66.81
2022-09-28T19:59:53.725Z,67.33
2022-09-28T20:02:21.902Z,66.93
2022-09-28T20:04:48.856Z,66.99
2022-09-28T20:07:15.707Z,67.13
2022-09-28T20:09:42.325Z,66.99
2022-09-28T20:12:09.453Z,66.90
2022-09-28T20:14:40.135Z,66.97
2022-09-28T20:17:07.509Z,66.87
2022-09-28T20:19:35.022Z,67.36
2022-09-28T20:22:02.973Z,67.59
2022-09-28T20:24:30.376Z,67.62
2022-09-28T20:26:58.041Z,67.80
2022-09-28T20:29:25.093Z,67.59
2022-09-28T20:31:51.933Z,67.61
2022-09-28T20:34:18.720Z,67.57
2022-09-28T20:36:45.327Z,67.31
2022-09-28T20:39:12.233Z,67.12
2022-09-28T20:41:40.348Z,66.98
2022-09-28T20:44:07.315Z,66.81
2022-09-28T20:46:35.273Z,66.84
2022-09-28T20:49:02.016Z,66.91
2022-09-28T20:51:28.673Z,66.52
2022-09-28T20:53:57.314Z,66.69
2022-09-28T20:56:25.931Z,66.82
2022-09-28T20:58:56.845Z,66.72
2022-09-28T21:01:25.421Z,66.78
2022-09-28T21:03:54.730Z,66.50
2022-09-28T21:06:23.196Z,66.40
2022-09-28T21:08:50.133Z,66.92
2022-09-28T21:11:18.790Z,67.02
2022-09-28T21:13:45.802Z,66.86
2022-09-28T21:16:14.969Z,66.91
2022-09-28T21:18:42.207Z,67.36
2022-09-28T21:21:14.356Z,67.67
2022-09-28T21:23:41.093Z,67.56
2022-09-28T21:26:10.575Z,67.50
2022-09-28T21:28:37.634Z,68.22
2022-09-28T21:31:10.259Z,68.42
2022-09-28T21:33:37.230Z,67.97
2022-09-28T21:36:06.280Z,67.83
2022-09-28T21:38:33.691Z,67.48
2022-09-28T21:41:00.282Z,67.09
2022-09-28T21:43:28.324Z,67.17
2022-09-28T21:45:55.105Z,67.20
2022-09-28T21:48:23.287Z,67.16
2022-09-28T21:50:56.715Z,67.70
2022-09-28T21:53:29.002Z,67.96
2022-09-28T21:55:58.141Z,67.03
2022-09-28T21:58:26.927Z,67.63
2022-09-28T22:01:01.194Z,68.12
2022-09-28T22:03:29.179Z,67.36
2022-09-28T22:05:55.802Z,67.25
2022-09-28T22:08:22.780Z,67.50
2022-09-28T22:11:03.016Z,67.65
2022-09-28T22:13:30.951Z,67.74
2022-09-28T22:15:58.763Z,67.70
2022-09-28T22:18:26.553Z,67.66
2022-09-28T22:21:06.422Z,67.44
2022-09-28T22:23:33.707Z,67.33
2022-09-28T22:26:01.133Z,67.59
2022-09-28T22:28:28.005Z,67.59
2022-09-28T22:30:55.208Z,67.77
2022-09-28T22:33:22.164Z,67.55
2022-09-28T22:35:51.060Z,68.14
2022-09-28T22:38:19.115Z,67.84
2022-09-28T22:40:52.918Z,67.76
2022-09-28T22:43:19.619Z,67.97
2022-09-28T22:45:46.289Z,68.18
2022-09-28T22:48:13.269Z,67.99
2022-09-28T22:50:48.067Z,68.04
2022-09-28T22:53:15.073Z,67.68
2022-09-28T22:55:41.865Z,67.60
2022-09-28T22:58:08.516Z,67.52
2022-09-28T23:00:35.207Z,68.47
2022-09-28T23:03:01.847Z,68.42
2022-09-28T23:05:28.503Z,68.30
2022-09-28T23:07:55.051Z,68.54
2022-09-28T23:10:21.558Z,68.50
2022-09-28T23:12:48.168Z,68.52
2022-09-28T23:15:15.342Z,68.36
2022-09-28T23:17:41.883Z,68.39
2022-09-28T23:20:08.768Z,68.70
2022-09-28T23:22:35.412Z,68.71
2022-09-28T23:25:01.986Z,68.95
2022-09-28T23:27:28.574Z,69.50
2022-09-28T23:29:55.123Z,69.46
2022-09-28T23:32:21.658Z,69.29
2022-09-28T23:34:48.296Z,69.46
2022-09-28T23:37:14.822Z,69.09
2022-09-28T23:39:42.287Z,68.33
2022-09-28T23:42:08.840Z,68.43
2022-09-28T23:44:35.797Z,68.35
2022-09-28T23:47:02.449Z,68.48
2022-09-28T23:49:29.628Z,68.31
2022-09-28T23:51:56.217Z,68.09
2022-09-28T23:54:22.833Z,67.51
2022-09-28T23:56:49.518Z,67.76
2022-09-28T23:59:16.299Z,67.73
